• Join FlightAware (Why Join?)
  • Login
  • US Flag 
10:02AM EDT


 

Airport Tracker/Info


-or-


 

Live Flight TrackerFlight Track Log ✈ N829MH ✈ 23-Jun-2012 ✈ KJFK - EGLL / LHR

Flight Track Log - Related Links

Times and Time Zones

All times are in EDT time to prevent confusion due to time zone crossing. See the N829MH flight status page for this flight to view local times or setup timezone preferences in your user account.

Time Position Orientation Groundspeed Altitude Reporting Facility
EDT Latitude Longitude Course Direction KTS MPH feet Rate Location/Type
08:45PM 40.6667 -73.6667 43° Northeast 243 280 3,000  Level New York TRACON
08:48PM 40.8088 -73.4907 344° North 279 321 9,800 1,980 Climbing FlightAware ADS-B
08:50PM 40.9831 -73.5555 31° Northeast 387 445 12,600 1,560 Climbing FlightAware ADS-B
08:50PM 41.0140 -73.5308 40° Northeast 391 450 13,500 2,220 Climbing FlightAware ADS-B
08:52PM 41.1417 -73.3906 39° Northeast 404 465 16,600 1,980 Climbing FlightAware ADS-B
08:53PM 41.2500 -73.2735 39° Northeast 404 465 18,800 1,860 Climbing FlightAware ADS-B
08:54PM 41.3245 -73.1921 42° Northeast 449 517 20,200 1,860 Climbing FlightAware ADS-B
08:54PM 41.3672 -73.1417 52° Northeast 462 532 21,100 1,800 Climbing FlightAware ADS-B
08:55PM 41.3973 -73.0910 59° Northeast 473 544 21,700 1,320 Climbing FlightAware ADS-B
08:55PM 41.4370 -73.0043 55° Northeast 491 565 22,400 1,200 Climbing FlightAware ADS-B
08:56PM 41.4825 -72.9167 59° Northeast 466 536 23,200 1,380 Climbing Boston Center
08:57PM 41.5558 -72.7564 53° Northeast 484 557 24,700 1,740 Climbing Boston Center
08:58PM 41.6397 -72.6067 54° Northeast 496 571 26,700 1,920 Climbing Boston Center
08:59PM 41.7211 -72.4567 55° Northeast 496 571 28,500 1,620 Climbing Boston Center
09:00PM 41.8000 -72.3064 55° Northeast 496 571 30,000 1,200 Climbing Boston Center
09:01PM 41.8811 -72.1531 55° Northeast 496 571 31,000 480 Climbing Boston Center
09:02PM 41.9578 -72.0044 54° Northeast 501 577 31,000  Level Boston Center
09:03PM 42.0383 -71.8531 54° Northeast 496 571 31,000  Level Boston Center
09:04PM 42.1186 -71.7039 55° Northeast 496 571 31,000  Level Boston Center
09:05PM 42.1825 -71.5828 53° Northeast 496 571 31,000 -60 Level Boston Center
09:06PM 42.2728 -71.4189 55° Northeast 496 571 30,900  Descending Boston Center
09:07PM 42.3547 -71.2631 55° Northeast 501 577 31,000  Climbing Boston Center
09:08PM 42.4342 -71.1067 55° Northeast 501 577 31,000  Level Boston Center
09:12PM 42.7686 -70.4603 57° Northeast 507 583 31,000  Level Boston Center
09:17PM 43.1667 -69.6167 53° Northeast 510 587 31,000  Level Moncton Center
09:18PM 43.2500 -69.4667 60° Northeast 510 587 31,000  Level Moncton Center
09:19PM 43.3333 -69.2667 53° Northeast 520 598 31,000 360 Level Moncton Center
09:20PM 43.4167 -69.1167 63° Northeast 520 598 31,800 480 Climbing Moncton Center
09:21PM 43.4833 -68.9333 52° Northeast 520 598 32,000 60 Climbing Moncton Center
09:22PM 43.5667 -68.7833 58° Northeast 510 587 32,000  Level Moncton Center
09:23PM 43.6500 -68.6000 52° Northeast 510 587 32,000  Level Moncton Center
09:24PM 43.7333 -68.4500 55° Northeast 510 587 32,000  Level Moncton Center
09:25PM 43.8167 -68.2833 58° Northeast 500 575 32,000  Level Moncton Center
09:26PM 43.8833 -68.1333 58° Northeast 500 575 32,000  Level Moncton Center
09:27PM 43.9667 -67.9500 54° Northeast 500 575 32,000  Level Moncton Center
09:29PM 44.0717 -67.7492 57° Northeast 498 573 32,000  Level Boston Center
09:30PM 44.1483 -67.5869 58° Northeast 498 573 32,100 420 Climbing Boston Center
09:31PM 44.2247 -67.4183 64° Northeast 498 573 32,900 540 Climbing Boston Center
09:31PM 44.2667 -67.3000 58° Northeast 500 575 33,000 60 Climbing Moncton Center
09:32PM 44.3333 -67.1500 57° Northeast 500 575 33,000  Level Moncton Center
09:33PM 44.4167 -66.9667 57° Northeast 510 587 33,000  Level Moncton Center
09:34PM 44.5000 -66.7833 62° Northeast 510 587 33,000  Level Moncton Center
09:36PM 44.6333 -66.4333 52° Northeast 510 587 33,000  Level Moncton Center
09:37PM 44.7167 -66.2833 55° Northeast 510 587 33,000  Level Moncton Center
09:38PM 44.8000 -66.1167 61° Northeast 500 575 33,000  Level Moncton Center
09:39PM 44.8667 -65.9500 60° Northeast 500 575 33,000  Level Moncton Center
09:40PM 44.9333 -65.7833 59° Northeast 500 575 33,000  Level Moncton Center
09:42PM 45.0833 -65.4333 60° Northeast 500 575 33,000  Level Moncton Center
09:43PM 45.1500 -65.2667 58° Northeast 500 575 33,000  Level Moncton Center
09:44PM 45.2167 -65.1167 65° Northeast 500 575 33,000  Level Moncton Center
09:45PM 45.2833 -64.9167 60° Northeast 500 575 33,000  Level Moncton Center
09:46PM 45.3500 -64.7500 54° Northeast 500 575 33,000  Level Moncton Center
09:47PM 45.4333 -64.5833 60° Northeast 510 587 33,000  Level Moncton Center
09:48PM 45.5000 -64.4167 63° Northeast 500 575 33,000  Level Moncton Center
09:49PM 45.5667 -64.2333 60° Northeast 500 575 33,000  Level Moncton Center
09:50PM 45.6333 -64.0667 54° Northeast 500 575 33,000  Level Moncton Center
09:51PM 45.7167 -63.9000 60° Northeast 500 575 33,000  Level Moncton Center
09:52PM 45.7833 -63.7333 64° Northeast 500 575 33,000  Level Moncton Center
09:53PM 45.8500 -63.5333 60° Northeast 500 575 33,000  Level Moncton Center
09:54PM 45.9167 -63.3667 54° Northeast 500 575 33,000  Level Moncton Center
09:55PM 46.0000 -63.2000 62° Northeast 500 575 33,000  Level Moncton Center
09:56PM 46.0667 -63.0167 60° Northeast 490 564 33,000  Level Moncton Center
09:57PM 46.1333 -62.8500 60° Northeast 490 564 33,000  Level Moncton Center
09:58PM 46.2000 -62.6833 60° Northeast 490 564 33,000  Level Moncton Center
09:59PM 46.2667 -62.5167 64° Northeast 490 564 33,000  Level Moncton Center
10:00PM 46.3333 -62.3167 68° East 490 564 33,000  Level Moncton Center
10:01PM 46.3833 -62.1333 60° Northeast 490 564 33,000  Level Moncton Center
10:02PM 46.4500 -61.9667 60° Northeast 490 564 33,000  Level Moncton Center
10:03PM 46.5167 -61.8000 56° Northeast 490 564 33,000  Level Moncton Center
10:04PM 46.6000 -61.6167 66° East 480 552 33,000  Level Moncton Center
10:05PM 46.6500 -61.4500 62° Northeast 480 552 33,000  Level Moncton Center
10:06PM 46.7167 -61.2667 57° Northeast 480 552 33,000  Level Moncton Center
10:07PM 46.7833 -61.1167 60° Northeast 480 552 33,000  Level Moncton Center
10:08PM 46.8500 -60.9500 68° East 480 552 33,000  Level Moncton Center
10:09PM 46.9000 -60.7667 60° Northeast 480 552 33,000  Level Moncton Center
10:10PM 46.9667 -60.6000 62° Northeast 470 541 33,000  Level Moncton Center
10:11PM 47.0333 -60.4167 64° Northeast 470 541 33,000  Level Moncton Center
10:12PM 47.0833 -60.2667 68° East 470 541 33,000  Level Moncton Center
10:13PM 47.1333 -60.0833 54° Northeast 470 541 33,000  Level Moncton Center
10:14PM 47.2167 -59.9167 75° East 470 541 33,000  Level Moncton Center
10:15PM 47.2500 -59.7333 57° Northeast 470 541 33,000  Level Moncton Center
10:16PM 47.3167 -59.5833 68° East 470 541 33,000  Level Moncton Center
10:17PM 47.3667 -59.4000 62° Northeast 470 541 33,000  Level Moncton Center
10:18PM 47.4333 -59.2167 66° East 470 541 33,000  Level Moncton Center
10:19PM 47.4833 -59.0500 62° Northeast 460 529 33,000  Level Moncton Center
10:20PM 47.5500 -58.8667 68° East 470 541 33,000  Level Moncton Center
10:21PM 47.6000 -58.6833 57° Northeast 470 541 33,000  Level Moncton Center
10:22PM 47.6667 -58.5333 59° Northeast 460 529 33,000  Level Moncton Center
10:23PM 47.7333 -58.3667 68° East 470 541 33,000  Level Moncton Center
10:24PM 47.7833 -58.1833 68° East 460 529 33,000  Level Moncton Center
10:25PM 47.8333 -58.0000 59° Northeast 470 541 33,000  Level Moncton Center
10:26PM 47.9000 -57.8333 73° East 460 529 33,000  Level Moncton Center
10:27PM 47.9333 -57.6667 61° Northeast 460 529 33,000  Level Moncton Center
10:28PM 48.0000 -57.4833 68° East 460 529 33,000  Level Moncton Center
10:29PM 48.0500 -57.3000 66° East 470 541 33,000  Level Moncton Center
10:30PM 48.1000 -57.1333 59° Northeast 470 541 33,000  Level Gander Center
10:31PM 48.1667 -56.9667 76° East 470 541 33,000  Level Gander Center
10:32PM 48.2000 -56.7667 56° Northeast 470 541 33,000  Level Gander Center
10:33PM 48.2667 -56.6167 68° East 470 541 33,000  Level Gander Center
10:34PM 48.3167 -56.4333 68° East 460 529 33,000  Level Gander Center
10:35PM 48.3667 -56.2500 63° Northeast 460 529 33,000  Level Gander Center
10:36PM 48.4167 -56.1000 68° East 450 518 33,000  Level Gander Center
10:37PM 48.4667 -55.9167 68° East 450 518 33,000  Level Gander Center
10:38PM 48.5167 -55.7333 66° East 450 518 33,000  Level Gander Center
10:39PM 48.5667 -55.5667 68° East 450 518 33,000  Level Gander Center
10:40PM 48.6167 -55.3833 63° Northeast 440 506 33,000  Level Gander Center
10:41PM 48.6667 -55.2333 67° East 440 506 33,000  Level Gander Center
10:42PM 48.7167 -55.0500 73° East 440 506 33,000  Level Gander Center
10:43PM 48.7500 -54.8833 61° Northeast 440 506 33,000  Level Gander Center
10:44PM 48.8167 -54.7000 74° East 440 506 33,000  Level Gander Center
10:45PM 48.8500 -54.5167 71° East 440 506 33,000  Level Gander Center
10:46PM 48.8833 -54.3667 61° Northeast 450 518 33,000  Level Gander Center
10:47PM 48.9500 -54.1833 73° East 450 518 33,000  Level Gander Center
10:48PM 48.9833 -54.0167 67° East 440 506 33,000  Level Gander Center
10:49PM 49.0333 -53.8333 65° Northeast 440 506 33,000  Level Gander Center
10:50PM 49.0833 -53.6667 67° East 440 506 33,000  Level Gander Center
10:51PM 49.1333 -53.4833 73° East 440 506 33,000  Level Gander Center
10:52PM 49.1667 -53.3167 61° Northeast 440 506 33,000  Level Gander Center
10:53PM 49.2333 -53.1333 73° East 440 506 33,000  Level Gander Center
10:54PM 49.2667 -52.9667 67° East 440 506 33,000  Level Gander Center
10:55PM 49.3167 -52.7833 73° East 440 506 33,000  Level Gander Center
10:56PM 49.3500 -52.6167 67° East 440 506 33,000  Level Gander Center
10:57PM 49.4000 -52.4333 65° Northeast 440 506 33,000  Level Gander Center
10:58PM 49.4500 -52.2667 74° East 440 506 33,000  Level Gander Center
10:59PM 49.4833 -52.0833 65° Northeast 440 506 33,000  Level Gander Center
11:00PM 49.5333 -51.9167 74° East 440 506 33,000  Level Gander Center
11:01PM 49.5667 -51.7333 69° East 440 506 33,000  Level Moncton Center
11:02PM 49.6167 -51.5333 60° Northeast 430 495 33,000  Level Moncton Center
11:03PM 49.6667 -51.4000 75° East 440 506 33,000  Level Gander Center
11:04PM 49.7000 -51.2000 65° Northeast 430 495 33,000  Level Gander Center
11:05PM 49.7500 -51.0333 74° East 440 506 33,000  Level Gander Center
11:06PM 49.7833 -50.8500 73° East 430 495 33,000  Level Gander Center
11:07PM 49.8167 -50.6833 67° East 430 495 33,000  Level Gander Center
11:08PM 49.8667 -50.5000 73° East 430 495 33,000  Level Gander Center
11:09PM 49.9000 -50.3333 65° Northeast 430 495 33,000  Level Gander Center
11:10PM 49.9500 -50.1667 75° East 430 495 33,000  Level Gander Center
11:11PM 49.9833 -49.9667 73° East 430 495 33,000  Level Gander Center
11:12PM 50.0167 -49.8000 82° East 440 506 33,000  Level Gander Center
11:13PM 50.0333 -49.6167 75° East 430 495 33,000  Level Gander Center
11:14PM 50.0667 -49.4167 81° East 440 506 33,000  Level Gander Center
11:16PM 50.1000 -49.0667 74° East 430 495 33,000  Level Gander Center
11:17PM 50.1333 -48.8833 75° East 430 495 33,000  Level Gander Center
11:18PM 50.1667 -48.6833 81° East 430 495 33,000  Level Gander Center
11:19PM 50.1833 -48.5167 74° East 440 506 33,000  Level Gander Center
11:20PM 50.2167 -48.3333 90° East 430 495 33,000  Level Gander Center
11:21PM 50.2167 -48.1500 73° East 430 495 33,000  Level Gander Center
11:22PM 50.2500 -47.9833 70° East 440 506 33,000 -60 Level Gander Center
11:30PM 50.4385 -46.5275 71° East  Level FlightAware Approximate
11:31PM 50.4591 -46.3473 71° East  Level FlightAware Approximate
11:32PM 50.4797 -46.1670 71° East  Level FlightAware Approximate
11:33PM 50.5094 -45.9898 71° East  Level FlightAware Approximate
11:34PM 50.5388 -45.8124 71° East  Level FlightAware Approximate
11:35PM 50.5680 -45.6343 71° East  Level FlightAware Approximate
11:36PM 50.5969 -45.4560 71° East  Level FlightAware Approximate
11:37PM 50.6255 -45.2775 71° East  Level FlightAware Approximate
11:38PM 50.6539 -45.0988 71° East  Level FlightAware Approximate
11:39PM 50.6820 -44.9199 72° East  Level FlightAware Approximate
11:40PM 50.7098 -44.7407 72° East  Level FlightAware Approximate
11:41PM 50.7373 -44.5614 72° East  Level FlightAware Approximate
11:42PM 50.7646 -44.3818 72° East  Level FlightAware Approximate
11:43PM 50.7916 -44.2020 72° East  Level FlightAware Approximate
11:44PM 50.8183 -44.0220 72° East  Level FlightAware Approximate
11:45PM 50.8447 -43.8418 72° East  Level FlightAware Approximate
11:46PM 50.8709 -43.6614 72° East  Level FlightAware Approximate
11:47PM 50.8968 -43.4808 73° East  Level FlightAware Approximate
11:48PM 50.9224 -43.3000 73° East  Level FlightAware Approximate
11:49PM 50.9477 -43.1190 73° East  Level FlightAware Approximate
11:50PM 50.9728 -42.9378 73° East  Level FlightAware Approximate
11:51PM 50.9975 -42.7565 73° East  Level FlightAware Approximate
11:52PM 51.0220 -42.5749 73° East  Level FlightAware Approximate
11:53PM 51.0462 -42.3931 73° East  Level FlightAware Approximate
11:54PM 51.0701 -42.2111 73° East  Level FlightAware Approximate
11:55PM 51.0937 -42.0290 74° East  Level FlightAware Approximate
11:56PM 51.1171 -41.8467 74° East  Level FlightAware Approximate
11:57PM 51.1402 -41.6642 74° East  Level FlightAware Approximate
11:58PM 51.1629 -41.4814 74° East  Level FlightAware Approximate
11:59PM 51.1854 -41.2986 74° East  Level FlightAware Approximate
12:00AM 51.2076 -41.1155 74° East  Level FlightAware Approximate
12:01AM 51.2296 -40.9323 74° East  Level FlightAware Approximate
12:02AM 51.2512 -40.7489 74° East  Level FlightAware Approximate
12:03AM 51.2726 -40.5653 74° East  Level FlightAware Approximate
12:04AM 51.2936 -40.3816 75° East  Level FlightAware Approximate
12:05AM 51.3162 -40.1982 75° East  Level FlightAware Approximate
12:06AM 51.3384 -40.0146 75° East  Level FlightAware Approximate
12:07AM 51.3604 -39.8309 75° East  Level FlightAware Approximate
12:08AM 51.3820 -39.6470 75° East  Level FlightAware Approximate
12:09AM 51.4034 -39.4629 75° East  Level FlightAware Approximate
12:10AM 51.4245 -39.2786 75° East  Level FlightAware Approximate
12:11AM 51.4453 -39.0942 75° East  Level FlightAware Approximate
12:12AM 51.4658 -38.9096 76° East  Level FlightAware Approximate
12:13AM 51.4860 -38.7248 76° East  Level FlightAware Approximate
12:14AM 51.5060 -38.5399 76° East  Level FlightAware Approximate
12:15AM 51.5256 -38.3548 76° East  Level FlightAware Approximate
12:16AM 51.5449 -38.1696 76° East  Level FlightAware Approximate
12:17AM 51.5640 -37.9842 76° East  Level FlightAware Approximate
12:18AM 51.5827 -37.7986 76° East  Level FlightAware Approximate
12:19AM 51.6012 -37.6129 76° East  Level FlightAware Approximate
12:20AM 51.6194 -37.4270 77° East  Level FlightAware Approximate
12:21AM 51.6373 -37.2410 77° East  Level FlightAware Approximate
12:22AM 51.6549 -37.0549 77° East  Level FlightAware Approximate
12:23AM 51.6721 -36.8686 77° East  Level FlightAware Approximate
12:24AM 51.6892 -36.6822 77° East  Level FlightAware Approximate
12:25AM 51.7058 -36.4956 77° East  Level FlightAware Approximate
12:26AM 51.7223 -36.3089 77° East  Level FlightAware Approximate
12:27AM 51.7384 -36.1220 77° East  Level FlightAware Approximate
12:28AM 51.7542 -35.9351 78° East  Level FlightAware Approximate
12:29AM 51.7697 -35.7480 78° East  Level FlightAware Approximate
12:30AM 51.7849 -35.5607 78° East  Level FlightAware Approximate
12:31AM 51.7998 -35.3734 78° East  Level FlightAware Approximate
12:32AM 51.8145 -35.1859 78° East  Level FlightAware Approximate
12:33AM 51.8288 -34.9983 78° East  Level FlightAware Approximate
12:34AM 51.8428 -34.8106 78° East  Level FlightAware Approximate
12:35AM 51.8565 -34.6227 78° East  Level FlightAware Approximate
12:36AM 51.8700 -34.4348 78° East  Level FlightAware Approximate
12:37AM 51.8831 -34.2467 79° East  Level FlightAware Approximate
12:38AM 51.8959 -34.0585 79° East  Level FlightAware Approximate
12:39AM 51.9085 -33.8703 79° East  Level FlightAware Approximate
12:40AM 51.9207 -33.6819 79° East  Level FlightAware Approximate
12:41AM 51.9326 -33.4934 79° East  Level FlightAware Approximate
12:42AM 51.9443 -33.3048 79° East  Level FlightAware Approximate
12:43AM 51.9556 -33.1161 79° East  Level FlightAware Approximate
12:44AM 51.9666 -32.9274 79° East  Level FlightAware Approximate
12:45AM 51.9773 -32.7385 80° East  Level FlightAware Approximate
12:46AM 51.9878 -32.5496 80° East  Level FlightAware Approximate
12:47AM 51.9979 -32.3605 80° East  Level FlightAware Approximate
12:48AM 52.0077 -32.1714 80° East  Level FlightAware Approximate
12:49AM 52.0172 -31.9822 80° East  Level FlightAware Approximate
12:50AM 52.0264 -31.7929 80° East  Level FlightAware Approximate
12:51AM 52.0353 -31.6035 80° East  Level FlightAware Approximate
12:52AM 52.0439 -31.4141 80° East  Level FlightAware Approximate
12:53AM 52.0522 -31.2246 80° East  Level FlightAware Approximate
12:54AM 52.0602 -31.0350 81° East  Level FlightAware Approximate
12:55AM 52.0679 -30.8454 81° East  Level FlightAware Approximate
12:56AM 52.0753 -30.6557 81° East  Level FlightAware Approximate
12:57AM 52.0824 -30.4655 81° East  Level FlightAware Approximate
12:58AM 52.0892 -30.2752 81° East  Level FlightAware Approximate
12:59AM 52.0957 -30.0849 81° East  Level FlightAware Approximate
01:00AM 52.1075 -29.8952 81° East  Level FlightAware Approximate
01:01AM 52.1191 -29.7054 81° East  Level FlightAware Approximate
01:02AM 52.1303 -29.5155 82° East  Level FlightAware Approximate
01:03AM 52.1413 -29.3256 82° East  Level FlightAware Approximate
01:04AM 52.1519 -29.1355 82° East  Level FlightAware Approximate
01:05AM 52.1623 -28.9454 82° East  Level FlightAware Approximate
01:06AM 52.1723 -28.7551 82° East  Level FlightAware Approximate
01:07AM 52.1820 -28.5648 82° East  Level FlightAware Approximate
01:08AM 52.1914 -28.3744 82° East  Level FlightAware Approximate
01:09AM 52.2006 -28.1839 82° East  Level FlightAware Approximate
01:10AM 52.2094 -27.9934 83° East  Level FlightAware Approximate
01:11AM 52.2178 -27.8027 83° East  Level FlightAware Approximate
01:12AM 52.2260 -27.6120 83° East  Level FlightAware Approximate
01:13AM 52.2339 -27.4212 83° East  Level FlightAware Approximate
01:14AM 52.2415 -27.2304 83° East  Level FlightAware Approximate
01:15AM 52.2488 -27.0395 83° East  Level FlightAware Approximate
01:16AM 52.2557 -26.8485 83° East  Level FlightAware Approximate
01:17AM 52.2624 -26.6575 83° East  Level FlightAware Approximate
01:18AM 52.2687 -26.4664 84° East  Level FlightAware Approximate
01:19AM 52.2747 -26.2753 84° East  Level FlightAware Approximate
01:20AM 52.2805 -26.0841 84° East  Level FlightAware Approximate
01:21AM 52.2859 -25.8929 84° East  Level FlightAware Approximate
01:22AM 52.2910 -25.7016 84° East  Level FlightAware Approximate
01:23AM 52.2958 -25.5103 84° East  Level FlightAware Approximate
01:24AM 52.3003 -25.3189 84° East  Level FlightAware Approximate
01:25AM 52.3045 -25.1275 84° East  Level FlightAware Approximate
01:26AM 52.3083 -24.9361 85° East  Level FlightAware Approximate
01:27AM 52.3119 -24.7446 85° East  Level FlightAware Approximate
01:28AM 52.3152 -24.5531 85° East  Level FlightAware Approximate
01:29AM 52.3181 -24.3616 85° East  Level FlightAware Approximate
01:30AM 52.3207 -24.1700 85° East  Level FlightAware Approximate
01:31AM 52.3231 -23.9785 85° East  Level FlightAware Approximate
01:32AM 52.3251 -23.7869 85° East  Level FlightAware Approximate
01:33AM 52.3268 -23.5953 85° East  Level FlightAware Approximate
01:34AM 52.3282 -23.4037 86° East  Level FlightAware Approximate
01:35AM 52.3292 -23.2120 86° East  Level FlightAware Approximate
01:36AM 52.3300 -23.0204 86° East  Level FlightAware Approximate
01:37AM 52.3305 -22.8288 86° East  Level FlightAware Approximate
01:38AM 52.3306 -22.6371 86° East  Level FlightAware Approximate
01:39AM 52.3305 -22.4455 86° East  Level FlightAware Approximate
01:40AM 52.3300 -22.2538 86° East  Level FlightAware Approximate
01:41AM 52.3292 -22.0622 86° East  Level FlightAware Approximate
01:42AM 52.3281 -21.8706 86° East  Level FlightAware Approximate
01:43AM 52.3267 -21.6789 87° East  Level FlightAware Approximate
01:44AM 52.3250 -21.4874 87° East  Level FlightAware Approximate
01:45AM 52.3230 -21.2958 87° East  Level FlightAware Approximate
01:46AM 52.3207 -21.1042 87° East  Level FlightAware Approximate
01:47AM 52.3180 -20.9126 87° East  Level FlightAware Approximate
01:48AM 52.3151 -20.7211 87° East  Level FlightAware Approximate
01:49AM 52.3118 -20.5296 87° East  Level FlightAware Approximate
01:50AM 52.3083 -20.3382 87° East  Level FlightAware Approximate
01:51AM 52.3044 -20.1467 87° East  Level FlightAware Approximate
01:52AM 52.3077 -19.9553 88° East  Level FlightAware Approximate
01:53AM 52.3107 -19.7638 88° East  Level FlightAware Approximate
01:54AM 52.3134 -19.5723 88° East  Level FlightAware Approximate
01:55AM 52.3158 -19.3808 88° East  Level FlightAware Approximate
01:56AM 52.3179 -19.1892 88° East  Level FlightAware Approximate
01:57AM 52.3196 -18.9976 88° East  Level FlightAware Approximate
01:58AM 52.3211 -18.8060 88° East  Level FlightAware Approximate
01:59AM 52.3222 -18.6145 89° East  Level FlightAware Approximate
02:00AM 52.3231 -18.4228 89° East  Level FlightAware Approximate
02:01AM 52.3236 -18.2312 89° East  Level FlightAware Approximate
02:02AM 52.3238 -18.0396 89° East  Level FlightAware Approximate
02:03AM 52.3237 -17.8480 89° East  Level FlightAware Approximate
02:04AM 52.3233 -17.6564 89° East  Level FlightAware Approximate
02:05AM 52.3226 -17.4648 89° East  Level FlightAware Approximate
02:06AM 52.3216 -17.2732 89° East  Level FlightAware Approximate
02:07AM 52.3202 -17.0816 90° East  Level FlightAware Approximate
02:08AM 52.3186 -16.8900 90° East  Level FlightAware Approximate
02:09AM 52.3167 -16.6985 90° East  Level FlightAware Approximate
02:10AM 52.3144 -16.5069 90° East  Level FlightAware Approximate
02:11AM 52.3118 -16.3154 90° East  Level FlightAware Approximate
02:12AM 52.3089 -16.1239 90° East  Level FlightAware Approximate
02:13AM 52.3057 -15.9324 90° East  Level FlightAware Approximate
02:14AM 52.3022 -15.7410 91° East  Level FlightAware Approximate
02:15AM 52.2984 -15.5496 91° East  Level FlightAware Approximate
02:16AM 52.2943 -15.3582 91° East  Level FlightAware Approximate
02:17AM 52.2899 -15.1669 91° East  Level FlightAware Approximate
02:18AM 52.2899 -14.9749 91° East  Level FlightAware Approximate
02:19AM 52.2897 -14.7830 91° East  Level FlightAware Approximate
02:20AM 52.2891 -14.5911 91° East  Level FlightAware Approximate
02:21AM 52.2882 -14.3992 92° East  Level FlightAware Approximate
02:22AM 52.2870 -14.2073 92° East  Level FlightAware Approximate
02:23AM 52.2855 -14.0154 92° East  Level FlightAware Approximate
02:24AM 52.2837 -13.8236 92° East  Level FlightAware Approximate
02:25AM 52.2816 -13.6317 92° East  Level FlightAware Approximate
02:26AM 52.2792 -13.4399 93° East  Level FlightAware Approximate
02:27AM 52.2764 -13.2481 93° East  Level FlightAware Approximate
02:28AM 52.2734 -13.0563 93° East  Level FlightAware Approximate
02:29AM 52.2700 -12.8645 93° East  Level FlightAware Approximate
02:30AM 52.2663 -12.6728 93° East  Level FlightAware Approximate
02:31AM 52.2624 -12.4811 93° East  Level FlightAware Approximate
02:32AM 52.2581 -12.2895 94° East  Level FlightAware Approximate
02:33AM 52.2535 -12.0978 94° East  Level FlightAware Approximate
02:34AM 52.2485 -11.9063 94° East  Level FlightAware Approximate
02:35AM 52.2433 -11.7147 94° East  Level FlightAware Approximate
02:36AM 52.2378 -11.5232 94° East  Level FlightAware Approximate
02:37AM 52.2319 -11.3318 94° East  Level FlightAware Approximate
02:38AM 52.2258 -11.1404 95° East  Level FlightAware Approximate
02:40AM 51.5042 -2.7795 97° East 545 627 26,200  Level FlightAware ADS-B
02:40AM 51.4958 -2.6663 96° East 499 574 25,200 -1,980 Descending FlightAware ADS-B
02:41AM 51.4879 -2.5552 96° East 472 543 24,200 -2,100 Descending FlightAware ADS-B
02:41AM 51.4812 -2.4520 95° East 458 527 23,100 -2,220 Descending FlightAware ADS-B
02:42AM 51.4754 -2.3540 95° East 447 514 22,000 -2,100 Descending FlightAware ADS-B
02:42AM 51.4687 -2.2428 96° East 437 503 20,900 -1,740 Descending FlightAware ADS-B
02:43AM 51.4623 -2.1426 96° East 435 501 20,200 -1,380 Descending FlightAware ADS-B
02:43AM 51.4558 -2.0457 97° East 433 498 19,500 -1,440 Descending FlightAware ADS-B
02:43AM 51.4510 -1.9827 105° East 426 490 19,000 -1,200 Descending FlightAware ADS-B
02:44AM 51.4374 -1.9004 104° East 412 474 18,600 -1,260 Descending FlightAware ADS-B
02:44AM 51.4232 -1.8116 104° East 406 467 17,800 -1,500 Descending FlightAware ADS-B
02:45AM 51.4091 -1.7215 104° East 398 458 17,100 -1,440 Descending FlightAware ADS-B
02:46AM 51.3949 -1.6284 103° East 390 449 16,300 -1,080 Descending FlightAware ADS-B
02:46AM 51.3823 -1.5437 102° East 381 438 16,000 -300 Descending FlightAware ADS-B
02:47AM 51.3717 -1.4646 103° East 357 411 16,000  Level FlightAware ADS-B
02:47AM 51.3610 -1.3890 103° East 343 395 16,000  Level FlightAware ADS-B
02:48AM 51.3503 -1.3138 103° East 343 395 16,000  Level FlightAware ADS-B
02:48AM 51.3389 -1.2354 97° East 346 398 16,000  Level FlightAware ADS-B
02:48AM 51.3348 -1.1852 91° East 352 405 16,000  Level FlightAware ADS-B
02:49AM 51.3338 -1.1054 90° East 354 407 16,000 -120 Level FlightAware ADS-B
02:49AM 51.3339 -1.0226 90° East 352 405 15,900 -600 Descending FlightAware ADS-B
02:50AM 51.3338 -0.9435 90° East 351 404 15,400 -900 Descending FlightAware ADS-B
02:50AM 51.3334 -0.8654 90° East 347 399 15,000 -600 Descending FlightAware ADS-B
02:51AM 51.3331 -0.8026 91° East 341 392 14,900 -660 Descending FlightAware ADS-B
02:51AM 51.3326 -0.7262 91° East 343 395 14,400 -900 Descending FlightAware ADS-B
02:52AM 51.3321 -0.6499 91° East 339 390 14,000 -720 Descending FlightAware ADS-B
02:52AM 51.3316 -0.5739 91° East 337 388 13,700 -840 Descending FlightAware ADS-B
02:53AM 51.3309 -0.5041 87° East 338 389 13,200 -1,080 Descending FlightAware ADS-B
02:53AM 51.3318 -0.4769 79° East 341 392 13,000 -540 Descending FlightAware ADS-B
02:53AM 51.3347 -0.4527 74° East 340 391 13,000  Level FlightAware ADS-B
02:53AM 51.3407 -0.4184 77° East 341 392 13,000 -360 Level FlightAware ADS-B
02:54AM 51.3489 -0.3602 82° East 340 391 12,800 -660 Descending FlightAware ADS-B
02:54AM 51.3503 -0.3437 92° East 337 388 12,700 -1,200 Descending FlightAware ADS-B
02:54AM 51.3501 -0.3323 99° East 331 381 12,600 -720 Descending FlightAware ADS-B
02:54AM 51.3491 -0.3222 107° East 325 374 12,600 -600 Level FlightAware ADS-B
02:54AM 51.3467 -0.3098 115° Southeast 316 364 12,500 -1,380 Descending FlightAware ADS-B
02:54AM 51.3446 -0.3024 123° Southeast 310 357 12,400 -1,380 Descending FlightAware ADS-B
02:54AM 51.3403 -0.2918 130° Southeast 301 346 12,300 -1,200 Descending FlightAware ADS-B
02:54AM 51.3359 -0.2833 139° Southeast 291 335 12,200 -1,140 Descending FlightAware ADS-B
02:55AM 51.3308 -0.2761 147° Southeast 282 325 12,100 -960 Descending FlightAware ADS-B
02:55AM 51.3229 -0.2679 157° South 267 307 12,000 -540 Descending FlightAware ADS-B
02:55AM 51.3180 -0.2646 166° South 260 299 12,000  Level FlightAware ADS-B
02:55AM 51.3066 -0.2600 177° South 248 285 12,000  Level FlightAware ADS-B
02:55AM 51.2979 -0.2592 186° South 242 278 12,000  Level FlightAware ADS-B
02:55AM 51.2881 -0.2610 198° South 235 270 12,000  Level FlightAware ADS-B
02:55AM 51.2773 -0.2667 208° Southwest 228 262 12,000  Level FlightAware ADS-B
02:55AM 51.2712 -0.2720 215° Southwest 225 259 12,000  Level FlightAware ADS-B
02:55AM 51.2681 -0.2754 220° Southwest 223 257 12,000  Level FlightAware ADS-B
02:56AM 51.2657 -0.2786 225° Southwest 223 257 12,000  Level FlightAware ADS-B
02:56AM 51.2598 -0.2882 234° Southwest 221 254 12,000  Level FlightAware ADS-B
02:56AM 51.2571 -0.2942 239° Southwest 221 254 12,000  Level FlightAware ADS-B
02:56AM 51.2548 -0.3002 248° West 219 252 12,000  Level FlightAware ADS-B
02:56AM 51.2507 -0.3164 258° West 220 253 12,000  Level FlightAware ADS-B
02:56AM 51.2490 -0.3294 266° West 221 254 12,000  Level FlightAware ADS-B
02:56AM 51.2487 -0.3369 275° West 223 257 12,000  Level FlightAware ADS-B
02:56AM 51.2495 -0.3528 286° West 227 261 12,000  Level FlightAware ADS-B
02:57AM 51.2523 -0.3680 295° West 233 268 12,000  Level FlightAware ADS-B
02:57AM 51.2546 -0.3759 300° West 237 273 12,000  Level FlightAware ADS-B
02:57AM 51.2564 -0.3809 307° West 240 276 12,000  Level FlightAware ADS-B
02:57AM 51.2620 -0.3928 316° Northwest 248 285 12,000  Level FlightAware ADS-B
02:57AM 51.2671 -0.4006 323° Northwest 255 293 12,000  Level FlightAware ADS-B
02:57AM 51.2722 -0.4069 328° Northwest 262 302 12,000  Level FlightAware ADS-B
02:57AM 51.2837 -0.4182 323° Northwest 262 302 12,000 -360 Level FlightAware ADS-B
02:57AM 51.2891 -0.4247 321° Northwest 257 296 11,900 -1,080 Descending FlightAware ADS-B
02:57AM 51.2988 -0.4372 326° Northwest 254 292 11,700 -900 Descending FlightAware ADS-B
02:58AM 51.3283 -0.4692 329° Northwest 255 293 11,300 -840 Descending FlightAware ADS-B
02:58AM 51.3371 -0.4775 340° North 260 299 11,200 -900 Descending FlightAware ADS-B
02:58AM 51.3435 -0.4813 350° North 269 310 11,100 -1,140 Descending FlightAware ADS-B
02:58AM 51.3497 -0.4831 356° North 277 319 11,000 -720 Descending FlightAware ADS-B
02:58AM 51.3554 -0.4838 North 282 325 11,000  Level FlightAware ADS-B
02:58AM 51.3615 -0.4835 North 287 330 11,000  Level FlightAware ADS-B
02:59AM 51.3710 -0.4813 14° North 295 339 11,000  Level FlightAware ADS-B
02:59AM 51.3749 -0.4797 20° North 299 344 11,000  Level FlightAware ADS-B
02:59AM 51.3825 -0.4753 32° Northeast 306 352 11,000  Level FlightAware ADS-B
02:59AM 51.3920 -0.4659 42° Northeast 314 361 11,000  Level FlightAware ADS-B
02:59AM 51.3983 -0.4568 52° Northeast 318 366 11,000  Level FlightAware ADS-B
02:59AM 51.4036 -0.4458 61° Northeast 321 369 11,000  Level FlightAware ADS-B
02:59AM 51.4070 -0.4358 72° East 324 373 11,000  Level FlightAware ADS-B
02:59AM 51.4104 -0.4187 83° East 327 376 11,000  Level FlightAware ADS-B
02:59AM 51.4114 -0.4060 92° East 328 377 11,000  Level FlightAware ADS-B
02:59AM 51.4110 -0.3905 106° East 324 373 11,000  Level FlightAware ADS-B
03:00AM 51.4084 -0.3755 113° Southeast 319 367 11,000  Level FlightAware ADS-B
03:00AM 51.4058 -0.3659 123° Southeast 315 362 11,000 -600 Level FlightAware ADS-B
03:00AM 51.4013 -0.3548 131° Southeast 308 354 10,900 -720 Descending FlightAware ADS-B
03:00AM 51.3979 -0.3487 139° Southeast 303 349 10,900 -720 Level FlightAware ADS-B
03:00AM 51.3924 -0.3410 148° Southeast 294 338 10,800 -1,020 Descending FlightAware ADS-B
03:00AM 51.3576 -0.3059 148° Southeast 282 325 10,300 -960 Descending FlightAware ADS-B
03:01AM 51.3366 -0.2849 149° Southeast 282 325 10,000 -720 Descending FlightAware ADS-B
03:01AM 51.3274 -0.2760 155° Southeast 286 329 10,000  Level FlightAware ADS-B
03:01AM 51.3172 -0.2684 165° South 280 322 10,000  Level FlightAware ADS-B
03:01AM 51.3132 -0.2667 172° South 274 315 10,000  Level FlightAware ADS-B
03:01AM 51.3083 -0.2657 177° South 265 305 10,000  Level FlightAware ADS-B
03:01AM 51.3040 -0.2654 185° South 260 299 10,000  Level FlightAware ADS-B
03:01AM 51.2980 -0.2661 189° South 254 292 10,000  Level FlightAware ADS-B
03:01AM 51.2933 -0.2673 200° South 250 288 10,000  Level FlightAware ADS-B
03:02AM 51.2804 -0.2750 214° Southwest 237 273 10,000  Level FlightAware ADS-B
03:02AM 51.2722 -0.2836 222° Southwest 226 260 10,000  Level FlightAware ADS-B
03:02AM 51.2694 -0.2877 228° Southwest 222 255 10,000  Level FlightAware ADS-B
03:02AM 51.2662 -0.2933 236° Southwest 218 251 10,000  Level FlightAware ADS-B
03:02AM 51.2609 -0.3057 247° West 215 247 10,000  Level FlightAware ADS-B
03:02AM 51.2569 -0.3208 255° West 213 245 10,000  Level FlightAware ADS-B
03:02AM 51.2560 -0.3262 264° West 214 246 10,000  Level FlightAware ADS-B
03:02AM 51.2552 -0.3392 272° West 215 247 10,000  Level FlightAware ADS-B
03:02AM 51.2555 -0.3507 284° West 217 250 10,000  Level FlightAware ADS-B
03:03AM 51.2568 -0.3593 285° West 218 251 10,000  Level FlightAware ADS-B
03:03AM 51.2581 -0.3669 294° West 220 253 10,000 -780 Level FlightAware ADS-B
03:03AM 51.2597 -0.3726 300° West 221 254 9,900 -1,020 Descending FlightAware ADS-B
03:03AM 51.2636 -0.3835 311° West 225 259 9,800 -1,020 Descending FlightAware ADS-B
03:03AM 51.2665 -0.3889 313° West 228 262 9,700 -720 Descending FlightAware ADS-B
03:03AM 51.2699 -0.3947 319° Northwest 232 267 9,700 -720 Level FlightAware ADS-B
03:03AM 51.2730 -0.3990 324° Northwest 235 270 9,600 -1,740 Descending FlightAware ADS-B
03:03AM 51.2765 -0.4030 328° Northwest 238 274 9,500 -1,380 Descending FlightAware ADS-B
03:03AM 51.2821 -0.4086 328° Northwest 240 276 9,400 -900 Descending FlightAware ADS-B
03:03AM 51.2888 -0.4153 324° Northwest 235 270 9,300 -600 Descending FlightAware ADS-B
03:03AM 51.2918 -0.4188 321° Northwest 232 267 9,300 -480 Level FlightAware ADS-B
03:04AM 51.2997 -0.4291 322° Northwest 227 261 9,200 -840 Descending FlightAware ADS-B
03:04AM 51.3043 -0.4347 325° Northwest 226 260 9,100 -600 Descending FlightAware ADS-B
03:04AM 51.3171 -0.4489 327° Northwest 226 260 9,000 -240 Descending FlightAware ADS-B
03:04AM 51.3263 -0.4586 326° Northwest 231 266 9,000  Level FlightAware ADS-B
03:04AM 51.3324 -0.4652 329° Northwest 233 268 9,000  Level FlightAware ADS-B
03:04AM 51.3370 -0.4696 335° Northwest 237 273 9,000  Level FlightAware ADS-B
03:04AM 51.3405 -0.4722 342° North 241 277 9,000  Level FlightAware ADS-B
03:04AM 51.3456 -0.4749 350° North 247 284 9,000  Level FlightAware ADS-B
03:04AM 51.3499 -0.4760 357° North 251 289 9,000  Level FlightAware ADS-B
03:04AM 51.3535 -0.4763 North 254 292 9,000  Level FlightAware ADS-B
03:05AM 51.3586 -0.4760 North 257 296 9,000  Level FlightAware ADS-B
03:05AM 51.3640 -0.4751 10° North 257 296 9,000 -600 Level FlightAware ADS-B
03:05AM 51.3830 -0.4696 10° North 256 295 8,800 -960 Descending FlightAware ADS-B
03:05AM 51.3934 -0.4667 14° North 256 295 8,600 -1,440 Descending FlightAware ADS-B
03:05AM 51.4035 -0.4628 20° North 261 300 8,400 -1,500 Descending FlightAware ADS-B
03:05AM 51.4075 -0.4604 28° Northeast 267 307 8,300 -1,500 Descending FlightAware ADS-B
03:05AM 51.4126 -0.4561 35° Northeast 272 313 8,200 -780 Descending FlightAware ADS-B
03:05AM 51.4161 -0.4522 39° Northeast 275 316 8,200 -900 Level FlightAware ADS-B
03:05AM 51.4191 -0.4483 46° Northeast 278 320 8,100 -900 Descending FlightAware ADS-B
03:06AM 51.4226 -0.4424 53° Northeast 281 323 8,100 -900 Level FlightAware ADS-B
03:06AM 51.4254 -0.4366 60° Northeast 283 326 8,000 -900 Descending FlightAware ADS-B
03:06AM 51.4278 -0.4300 66° East 285 328 8,000  Level FlightAware ADS-B
03:06AM 51.4300 -0.4219 74° East 289 333 8,000  Level FlightAware ADS-B
03:06AM 51.4315 -0.4137 81° East 293 337 8,000  Level FlightAware ADS-B
03:06AM 51.4324 -0.4042 85° East 297 342 8,000  Level FlightAware ADS-B
03:06AM 51.4329 -0.3957 91° East 297 342 8,000  Level FlightAware ADS-B
03:06AM 51.4326 -0.3722 92° East 304 350 8,000  Level FlightAware ADS-B
03:06AM 51.4316 -0.3348 92° East 307 353 8,000  Level FlightAware ADS-B
03:07AM 51.4306 -0.2962 91° East 304 350 8,000 -360 Level FlightAware ADS-B
03:07AM 51.4301 -0.2603 92° East 297 342 7,800 -1,020 Descending FlightAware ADS-B
03:07AM 51.4294 -0.2265 92° East 296 341 7,500 -1,020 Descending FlightAware ADS-B
03:07AM 51.4287 -0.1931 91° East 288 331 7,300 -420 Descending FlightAware ADS-B
03:08AM 51.4282 -0.1606 92° East 275 316 7,300 -420 Level FlightAware ADS-B
03:08AM 51.4275 -0.1257 91° East 263 303 7,100 -840 Descending FlightAware ADS-B
03:08AM 51.4272 -0.1019 92° East 255 293 6,900 -900 Descending FlightAware ADS-B
03:08AM 51.4265 -0.0729 92° East 248 285 6,700 -1,020 Descending FlightAware ADS-B
03:09AM 51.4260 -0.0452 92° East 243 280 6,400 -1,020 Descending FlightAware ADS-B
03:09AM 51.4255 -0.0166 87° East 241 277 6,200 -900 Descending FlightAware ADS-B
03:09AM 51.4257 -0.0096 82° East 240 276 6,100 -540 Descending FlightAware ADS-B
03:09AM 51.4270 0.0050 75° East 243 280 6,100 -720 Level FlightAware ADS-B
03:09AM 51.4326 0.0385 58° Northeast 244 281 5,800 -900 Descending FlightAware ADS-B
03:10AM 51.4370 0.0496 46° Northeast 236 272 5,700 -540 Descending FlightAware ADS-B
03:10AM 51.4399 0.0545 31° Northeast 226 260 5,700 -960 Level FlightAware ADS-B
03:10AM 51.4473 0.0617 13° North 211 243 5,500 -900 Descending FlightAware ADS-B
03:10AM 51.4584 0.0658 North 203 234 5,400 -720 Descending FlightAware ADS-B
03:10AM 51.4722 0.0690 North 202 232 5,200 -900 Descending FlightAware ADS-B
03:10AM 51.4775 0.0697 355° North 198 228 5,100 -600 Descending FlightAware ADS-B
03:10AM 51.4810 0.0692 344° North 191 220 5,100  Level FlightAware ADS-B
03:11AM 51.4857 0.0670 325° Northwest 183 211 5,100  Level FlightAware ADS-B
03:11AM 51.4899 0.0623 315° West 171 197 5,100 600 Level FlightAware ADS-B
03:11AM 51.4918 0.0592 300° West 166 191 5,200 660 Climbing FlightAware ADS-B
03:11AM 51.4940 0.0532 295° West 163 188 5,200  Level FlightAware ADS-B
03:11AM 51.4954 0.0483 292° West 163 188 5,200 -600 Level FlightAware ADS-B
03:11AM 51.4969 0.0425 294° West 164 189 5,100 -900 Descending FlightAware ADS-B
03:11AM 51.5011 0.0271 293° West 160 184 4,900 -780 Descending FlightAware ADS-B
03:11AM 51.5041 0.0154 291° West 160 184 4,800 -900 Descending FlightAware ADS-B
03:12AM 51.5070 0.0035 283° West 158 182 4,600 -840 Descending FlightAware ADS-B
03:12AM 51.5077 -0.0012 276° West 156 180 4,600  Level FlightAware ADS-B
03:12AM 51.5080 -0.0061 272° West 156 180 4,600 -480 Level FlightAware ADS-B
03:12AM 51.5082 -0.0157 268° West 154 177 4,500 -960 Descending FlightAware ADS-B
03:12AM 51.5080 -0.0279 269° West 153 176 4,300 -840 Descending FlightAware ADS-B
03:12AM 51.5079 -0.0420 270° West 153 176 4,200 -420 Descending FlightAware ADS-B
03:13AM 51.5079 -0.0655 269° West 153 176 4,100 -180 Descending FlightAware ADS-B
03:13AM 51.5077 -0.0817 269° West 155 178 4,100  Level FlightAware ADS-B
03:13AM 51.5075 -0.1038 270° West 154 177 4,100  Level FlightAware ADS-B
03:13AM 51.5075 -0.1273 269° West 154 177 4,100 -360 Level FlightAware ADS-B
03:14AM 51.5074 -0.1450 268° West 156 180 3,900 -780 Descending FlightAware ADS-B
03:14AM 51.5072 -0.1547 270° West 153 176 3,800 -780 Descending FlightAware ADS-B
03:14AM 51.5072 -0.1720 268° West 152 175 3,600 -840 Descending FlightAware ADS-B
03:14AM 51.5068 -0.1955 270° West 150 173 3,300 -780 Descending FlightAware ADS-B
03:15AM 51.5068 -0.2142 259° West 148 170 3,100 -720 Descending FlightAware ADS-B
03:22AM 51.3330 -1.6175 79° East  Level Estimated
03:23AM 51.4667 -0.4500 79° East  Level FlightAware Approximate